Time;durP1;ratioP1;P1;durP2;ratioP2;P2;SDS_P1;SDS_P2;PMS_P1;PMS_P2;Temp;Humidity;BMP_temperature;BMP_pressure;BME280_temperature;BME280_humidity;BME280_pressure;Samples;Min_cycle;Max_cycle;Signal;HPM_P1;HPM_P2
2022/03/16 00:01:48;;;;;;;311.38;100.30;;;;;;;;;;6216167;28;20034;-68
2022/03/16 00:04:52;;;;;;;237.55;78.63;;;;;;;;;;6214150;28;20099;-66
2022/03/16 00:07:54;;;;;;;90.72;33.25;;;;;;;;;;6215582;28;20046;-66
2022/03/16 00:11:01;;;;;;;89.00;34.85;;;;;;;;;;6219237;28;20042;-67
2022/03/16 00:14:02;;;;;;;102.03;39.28;;;;;;;;;;6220432;28;20046;-67
2022/03/16 00:17:04;;;;;;;120.50;43.95;;;;;;;;;;6219720;28;20137;-66
2022/03/16 00:20:05;;;;;;;109.32;39.97;;;;;;;;;;6219514;28;20144;-66
2022/03/16 00:23:06;;;;;;;72.82;28.88;;;;;;;;;;6218914;28;20485;-65
2022/03/16 00:26:06;;;;;;;110.80;42.25;;;;;;;;;;6218880;28;20120;-66
2022/03/16 00:29:07;;;;;;;63.55;26.65;;;;;;;;;;6219740;28;20162;-67
2022/03/16 00:32:08;;;;;;;46.58;20.73;;;;;;;;;;6219842;28;20061;-66
2022/03/16 00:35:08;;;;;;;73.60;33.13;;;;;;;;;;6219292;28;20053;-66
2022/03/16 00:38:09;;;;;;;72.25;26.90;;;;;;;;;;6219582;28;20045;-67
2022/03/16 00:41:11;;;;;;;62.70;28.63;;;;;;;;;;6219607;28;20176;-66
2022/03/16 00:44:12;;;;;;;;;;;;;;;;;;6219959;28;20053;-65
2022/03/16 00:47:13;;;;;;;59.67;24.88;;;;;;;;;;6218780;28;19964;-65
2022/03/16 00:50:13;;;;;;;58.10;29.33;;;;;;;;;;6219661;28;20057;-67
2022/03/16 00:53:14;;;;;;;50.47;22.38;;;;;;;;;;6219693;28;20168;-66
2022/03/16 00:56:15;;;;;;;47.33;21.70;;;;;;;;;;6217929;28;20417;-66
2022/03/16 00:59:15;;;;;;;44.83;22.10;;;;;;;;;;6219426;28;20077;-66
2022/03/16 01:02:16;;;;;;;51.92;23.92;;;;;;;;;;6217957;28;20034;-67
2022/03/16 01:05:17;;;;;;;46.47;23.67;;;;;;;;;;6214889;28;20564;-67
2022/03/16 01:08:17;;;;;;;52.78;24.40;;;;;;;;;;6217133;28;20042;-67
2022/03/16 01:11:18;;;;;;;54.60;24.13;;;;;;;;;;6215169;28;20133;-66
2022/03/16 01:14:19;;;;;;;59.67;26.85;;;;;;;;;;6217830;28;20056;-67
2022/03/16 01:17:19;;;;;;;53.05;24.05;;;;;;;;;;6213774;28;20054;-67
2022/03/16 01:20:21;;;;;;;51.20;24.25;;;;;;;;;;6214241;28;20153;-66
2022/03/16 01:23:21;;;;;;;50.55;22.52;;;;;;;;;;6215063;28;20462;-66
2022/03/16 01:26:22;;;;;;;46.05;21.98;;;;;;;;;;6212543;28;20042;-67
2022/03/16 01:29:24;;;;;;;49.00;23.02;;;;;;;;;;6215275;28;20049;-68
2022/03/16 01:32:25;;;;;;;48.75;21.92;;;;;;;;;;6211621;28;20046;-67
2022/03/16 01:35:25;;;;;;;47.13;22.42;;;;;;;;;;6212581;28;20141;-67
2022/03/16 01:38:26;;;;;;;50.67;22.45;;;;;;;;;;6216061;28;20053;-66
2022/03/16 01:41:27;;;;;;;51.05;22.48;;;;;;;;;;6216126;28;20052;-67
2022/03/16 01:44:44;;;;;;;48.10;22.75;;;;;;;;;;6214411;28;20050;-66
2022/03/16 01:47:44;;;;;;;45.50;21.10;;;;;;;;;;6211634;28;20412;-66
2022/03/16 01:50:46;;;;;;;49.58;24.80;;;;;;;;;;6214677;28;20053;-66
2022/03/16 01:53:47;;;;;;;55.63;24.67;;;;;;;;;;6214312;28;20056;-66
2022/03/16 01:56:48;;;;;;;53.95;23.00;;;;;;;;;;6212496;28;20069;-66
2022/03/16 01:59:49;;;;;;;50.88;23.42;;;;;;;;;;6216411;28;20060;-66
2022/03/16 02:02:49;;;;;;;48.00;23.23;;;;;;;;;;6218539;28;20469;-67
2022/03/16 02:05:51;;;;;;;50.38;23.10;;;;;;;;;;6218712;28;20056;-67
2022/03/16 02:08:51;;;;;;;49.15;22.27;;;;;;;;;;6219027;28;20081;-67
2022/03/16 02:11:52;;;;;;;49.35;24.25;;;;;;;;;;6215933;28;20063;-68
2022/03/16 02:14:53;;;;;;;53.75;23.42;;;;;;;;;;6212483;28;20053;-67
2022/03/16 02:17:55;;;;;;;53.92;25.40;;;;;;;;;;6211700;28;20046;-67
2022/03/16 02:20:56;;;;;;;55.03;24.52;;;;;;;;;;6212814;28;20057;-67
2022/03/16 02:23:57;;;;;;;65.97;32.63;;;;;;;;;;6212639;28;20160;-67
2022/03/16 02:26:58;;;;;;;87.00;36.92;;;;;;;;;;6210040;28;20524;-66
2022/03/16 02:29:59;;;;;;;72.82;31.42;;;;;;;;;;6214077;28;20088;-66
2022/03/16 02:33:00;;;;;;;67.88;30.27;;;;;;;;;;6211997;28;20136;-66
2022/03/16 02:36:02;;;;;;;80.82;35.80;;;;;;;;;;6210418;28;20046;-69
2022/03/16 02:39:02;;;;;;;97.72;40.60;;;;;;;;;;6213183;28;20057;-68
2022/03/16 02:42:04;;;;;;;96.15;41.17;;;;;;;;;;6212916;28;20042;-69
2022/03/16 02:45:06;;;;;;;118.70;56.53;;;;;;;;;;6215478;28;20096;-68
2022/03/16 02:48:07;;;;;;;114.47;52.47;;;;;;;;;;6209132;28;20057;-67
2022/03/16 02:51:08;;;;;;;98.97;43.38;;;;;;;;;;6212757;28;20053;-67
2022/03/16 02:54:08;;;;;;;90.50;37.50;;;;;;;;;;6213687;28;20073;-67
2022/03/16 02:57:09;;;;;;;93.65;37.20;;;;;;;;;;6211475;28;20085;-67
2022/03/16 03:00:10;;;;;;;83.57;34.53;;;;;;;;;;6210671;28;20512;-67
2022/03/16 03:03:11;;;;;;;96.33;39.00;;;;;;;;;;6212311;28;20045;-66
2022/03/16 03:06:12;;;;;;;80.05;35.42;;;;;;;;;;6210764;28;20057;-67
2022/03/16 03:09:13;;;;;;;78.97;34.47;;;;;;;;;;6211219;28;20058;-67
2022/03/16 03:12:13;;;;;;;72.03;32.55;;;;;;;;;;6211036;28;20141;-68
2022/03/16 03:15:15;;;;;;;76.78;32.92;;;;;;;;;;6210820;28;20061;-68
2022/03/16 03:18:17;;;;;;;82.88;35.05;;;;;;;;;;6210832;28;20149;-67
2022/03/16 03:21:17;;;;;;;79.93;34.60;;;;;;;;;;6211194;28;20058;-67
2022/03/16 03:24:18;;;;;;;81.25;34.20;;;;;;;;;;6210368;28;20137;-67
2022/03/16 03:27:19;;;;;;;72.97;33.17;;;;;;;;;;6209203;28;20140;-68
2022/03/16 03:30:20;;;;;;;78.45;33.22;;;;;;;;;;6210172;28;20053;-67
2022/03/16 03:33:20;;;;;;;69.50;31.88;;;;;;;;;;6212141;28;20393;-68
2022/03/16 03:36:21;;;;;;;67.90;30.52;;;;;;;;;;6214247;28;20065;-66
2022/03/16 03:39:22;;;;;;;67.30;29.35;;;;;;;;;;6211938;28;20168;-68
2022/03/16 03:42:22;;;;;;;65.65;30.88;;;;;;;;;;6212655;28;20849;-66
2022/03/16 03:45:23;;;;;;;65.07;29.67;;;;;;;;;;6212638;28;20704;-67
2022/03/16 03:48:24;;;;;;;61.22;28.42;;;;;;;;;;6217039;28;20042;-66
2022/03/16 03:51:25;;;;;;;57.28;27.23;;;;;;;;;;6232458;28;20038;-66
2022/03/16 03:54:25;;;;;;;61.88;27.25;;;;;;;;;;6214695;28;20107;-66
2022/03/16 03:57:26;;;;;;;57.92;29.63;;;;;;;;;;6213205;28;20048;-66
2022/03/16 04:00:27;;;;;;;62.75;28.67;;;;;;;;;;6231180;28;20057;-68
2022/03/16 04:03:27;;;;;;;55.50;27.63;;;;;;;;;;6217279;28;20054;-67
2022/03/16 04:06:28;;;;;;;57.90;28.30;;;;;;;;;;6215140;28;20065;-67
2022/03/16 04:09:29;;;;;;;58.33;27.45;;;;;;;;;;6215241;28;20093;-66
2022/03/16 04:12:29;;;;;;;61.92;28.33;;;;;;;;;;6216782;28;21859;-66
2022/03/16 04:15:30;;;;;;;57.15;28.20;;;;;;;;;;6215600;28;20133;-66
2022/03/16 04:18:31;;;;;;;58.85;29.27;;;;;;;;;;6217454;28;20042;-66
2022/03/16 04:21:33;;;;;;;72.15;33.22;;;;;;;;;;6214572;28;20160;-66
2022/03/16 04:24:34;;;;;;;85.50;38.58;;;;;;;;;;6213323;28;20164;-66
2022/03/16 04:27:35;;;;;;;88.72;40.13;;;;;;;;;;6215263;28;20781;-67
2022/03/16 04:30:35;;;;;;;91.78;40.80;;;;;;;;;;6214058;28;20042;-68
2022/03/16 04:33:37;;;;;;;102.05;43.22;;;;;;;;;;6216903;28;20042;-66
2022/03/16 04:36:37;;;;;;;95.57;42.23;;;;;;;;;;6215453;28;20042;-67
2022/03/16 04:39:38;;;;;;;98.57;44.17;;;;;;;;;;6215590;28;20826;-66
2022/03/16 04:42:39;;;;;;;96.20;42.58;;;;;;;;;;6214857;28;20056;-65
2022/03/16 04:45:41;;;;;;;109.68;47.42;;;;;;;;;;6212013;28;20046;-65
2022/03/16 04:48:42;;;;;;;100.75;44.15;;;;;;;;;;6217858;28;20111;-66
2022/03/16 04:51:42;;;;;;;116.28;48.03;;;;;;;;;;6216823;28;20072;-66
2022/03/16 04:54:43;;;;;;;110.93;47.20;;;;;;;;;;6216376;28;20129;-66
2022/03/16 04:57:44;;;;;;;99.07;45.15;;;;;;;;;;6213001;28;20468;-66
2022/03/16 05:00:45;;;;;;;103.43;46.30;;;;;;;;;;6216108;28;20056;-66
2022/03/16 05:03:46;;;;;;;105.68;47.13;;;;;;;;;;6230246;28;20605;-67
2022/03/16 05:06:46;;;;;;;103.60;44.80;;;;;;;;;;6211764;28;20056;-67
2022/03/16 05:09:47;;;;;;;96.55;44.28;;;;;;;;;;6216236;28;20049;-67
2022/03/16 05:12:48;;;;;;;178.73;59.78;;;;;;;;;;6213529;28;20056;-67
2022/03/16 05:15:48;;;;;;;271.30;78.80;;;;;;;;;;6214640;28;20092;-66
2022/03/16 05:18:49;;;;;;;232.98;63.80;;;;;;;;;;6212725;28;20065;-67
2022/03/16 05:21:50;;;;;;;241.00;64.30;;;;;;;;;;6213438;28;20050;-68
2022/03/16 05:24:50;;;;;;;164.40;54.80;;;;;;;;;;6214091;28;20496;-67
2022/03/16 05:27:52;;;;;;;86.25;40.90;;;;;;;;;;6218598;28;20049;-66
2022/03/16 05:30:53;;;;;;;87.43;40.13;;;;;;;;;;6219224;28;20053;-67
2022/03/16 05:33:54;;;;;;;91.22;42.22;;;;;;;;;;6217493;28;20115;-65
2022/03/16 05:36:54;;;;;;;91.10;40.47;;;;;;;;;;6217924;28;20478;-67
2022/03/16 05:39:55;;;;;;;102.47;44.92;;;;;;;;;;6217978;28;20471;-67
2022/03/16 05:42:55;;;;;;;225.68;64.55;;;;;;;;;;6217483;28;20056;-66
2022/03/16 05:45:56;;;;;;;104.10;43.67;;;;;;;;;;6213643;28;20053;-66
2022/03/16 05:48:57;;;;;;;86.78;39.58;;;;;;;;;;6213508;28;20088;-66
2022/03/16 05:51:57;;;;;;;86.53;39.85;;;;;;;;;;6218619;28;20042;-67
2022/03/16 05:54:59;;;;;;;105.35;41.80;;;;;;;;;;6217172;28;20401;-64
2022/03/16 05:58:00;;;;;;;96.00;43.38;;;;;;;;;;6219250;28;20042;-67
2022/03/16 06:01:01;;;;;;;95.45;43.42;;;;;;;;;;6219362;28;20588;-66
2022/03/16 06:04:01;;;;;;;85.32;42.78;;;;;;;;;;6217526;28;20056;-66
2022/03/16 06:07:03;;;;;;;88.38;40.97;;;;;;;;;;6214450;28;20101;-63
2022/03/16 06:10:15;;;;;;;89.43;40.85;;;;;;;;;;6217548;28;20069;-70
2022/03/16 06:13:17;;;;;;;90.83;42.53;;;;;;;;;;6218177;28;20049;-70
2022/03/16 06:16:17;;;;;;;93.00;43.10;;;;;;;;;;6218398;28;20053;-66
2022/03/16 06:19:21;;;;;;;91.15;42.40;;;;;;;;;;6219511;28;20081;-67
2022/03/16 06:22:21;;;;;;;93.78;43.83;;;;;;;;;;6219475;28;20061;-69
2022/03/16 06:25:24;;;;;;;95.20;43.83;;;;;;;;;;6218301;28;20140;-69
2022/03/16 06:28:25;;;;;;;93.32;42.92;;;;;;;;;;6218671;28;20102;-69
2022/03/16 06:31:25;;;;;;;100.47;46.30;;;;;;;;;;6219599;28;20420;-68
2022/03/16 06:34:26;;;;;;;98.68;46.28;;;;;;;;;;6217796;28;20042;-71
2022/03/16 06:37:27;;;;;;;95.28;42.47;;;;;;;;;;6218381;28;20445;-70
2022/03/16 06:40:27;;;;;;;93.97;43.38;;;;;;;;;;6216659;28;20054;-67
2022/03/16 06:43:28;;;;;;;87.43;41.72;;;;;;;;;;6217111;28;20129;-68
2022/03/16 06:46:29;;;;;;;87.90;41.13;;;;;;;;;;6215057;28;20045;-67
2022/03/16 06:49:30;;;;;;;82.53;40.88;;;;;;;;;;6215129;28;20081;-64
2022/03/16 06:52:30;;;;;;;84.20;39.42;;;;;;;;;;6215905;28;20054;-62
2022/03/16 06:55:31;;;;;;;85.47;39.53;;;;;;;;;;6213632;28;20805;-72
2022/03/16 06:58:31;;;;;;;85.40;40.88;;;;;;;;;;6215989;28;20204;-67
2022/03/16 07:01:32;;;;;;;84.47;39.95;;;;;;;;;;6211786;28;20046;-68
2022/03/16 07:04:33;;;;;;;85.15;39.78;;;;;;;;;;6215672;28;20042;-74
2022/03/16 07:07:34;;;;;;;75.70;37.17;;;;;;;;;;6215130;28;20091;-71
2022/03/16 07:10:36;;;;;;;78.00;39.38;;;;;;;;;;6215170;28;20053;-70
2022/03/16 07:13:38;;;;;;;86.82;38.00;;;;;;;;;;6216808;28;20081;-68
2022/03/16 07:16:41;;;;;;;84.55;37.67;;;;;;;;;;6215842;28;20466;-71
2022/03/16 07:19:42;;;;;;;86.70;40.55;;;;;;;;;;6216765;28;20607;-69
2022/03/16 07:22:43;;;;;;;91.53;41.00;;;;;;;;;;6222090;28;20154;-70
2022/03/16 07:25:46;;;;;;;83.28;38.45;;;;;;;;;;6220433;28;20129;-70
2022/03/16 07:28:47;;;;;;;84.28;39.03;;;;;;;;;;6220303;28;20041;-68
2022/03/16 07:31:47;;;;;;;83.88;40.17;;;;;;;;;;6220272;28;20449;-69
2022/03/16 07:34:49;;;;;;;92.20;40.22;;;;;;;;;;6217408;28;20045;-68
2022/03/16 07:37:50;;;;;;;83.57;37.92;;;;;;;;;;6220078;28;20128;-68
2022/03/16 07:40:50;;;;;;;75.97;35.83;;;;;;;;;;6220539;28;20126;-68
2022/03/16 07:43:51;;;;;;;88.68;39.08;;;;;;;;;;6221520;28;20374;-70
2022/03/16 07:46:52;;;;;;;86.18;40.03;;;;;;;;;;6218589;28;20054;-66
2022/03/16 07:49:53;;;;;;;85.10;39.03;;;;;;;;;;6221644;28;20582;-67
2022/03/16 07:52:55;;;;;;;88.17;39.93;;;;;;;;;;6220844;28;20049;-67
2022/03/16 07:55:57;;;;;;;82.68;40.00;;;;;;;;;;6219148;28;20397;-70
2022/03/16 07:59:01;;;;;;;85.18;40.78;;;;;;;;;;6220657;28;20038;-69
2022/03/16 08:02:01;;;;;;;78.25;36.88;;;;;;;;;;6220753;28;20054;-67
2022/03/16 08:05:03;;;;;;;78.28;37.78;;;;;;;;;;6220030;28;20050;-69
2022/03/16 08:08:04;;;;;;;81.27;35.40;;;;;;;;;;6221044;28;20053;-68
2022/03/16 08:11:06;;;;;;;70.70;34.78;;;;;;;;;;6221008;28;20049;-70
2022/03/16 08:14:07;;;;;;;69.45;33.65;;;;;;;;;;6219682;28;20052;-72
2022/03/16 08:17:08;;;;;;;65.82;33.63;;;;;;;;;;6215427;28;20671;-68
2022/03/16 08:20:09;;;;;;;78.80;34.78;;;;;;;;;;6220112;28;20054;-72
2022/03/16 08:23:09;;;;;;;72.10;35.00;;;;;;;;;;6217490;28;20045;-65
2022/03/16 08:26:10;;;;;;;72.65;35.47;;;;;;;;;;6218298;28;20145;-67
2022/03/16 08:29:11;;;;;;;78.60;37.17;;;;;;;;;;6220842;28;20128;-66
2022/03/16 08:32:11;;;;;;;81.00;39.63;;;;;;;;;;6217756;28;20125;-68
2022/03/16 08:35:12;;;;;;;88.03;39.25;;;;;;;;;;6218143;28;20108;-67
2022/03/16 08:38:13;;;;;;;82.53;40.17;;;;;;;;;;6219413;28;20530;-66
2022/03/16 08:41:14;;;;;;;89.00;41.38;;;;;;;;;;6215347;28;20108;-66
2022/03/16 08:44:15;;;;;;;87.82;41.72;;;;;;;;;;6220820;28;20050;-68
2022/03/16 08:47:16;;;;;;;89.07;40.90;;;;;;;;;;6214862;28;20718;-68
2022/03/16 08:50:17;;;;;;;94.13;44.20;;;;;;;;;;6216506;28;20050;-69
2022/03/16 08:53:18;;;;;;;93.65;40.83;;;;;;;;;;6217670;28;20071;-65
2022/03/16 08:56:19;;;;;;;84.65;38.85;;;;;;;;;;6212535;28;20812;-68
2022/03/16 08:59:20;;;;;;;80.50;38.75;;;;;;;;;;6215277;28;20127;-68
2022/03/16 09:02:21;;;;;;;84.97;39.88;;;;;;;;;;6216852;28;20511;-68
2022/03/16 09:05:23;;;;;;;83.03;38.70;;;;;;;;;;6215344;28;20144;-70
2022/03/16 09:08:23;;;;;;;86.18;38.88;;;;;;;;;;6216715;28;20042;-69
2022/03/16 09:11:24;;;;;;;82.88;37.63;;;;;;;;;;6214361;28;20065;-68
2022/03/16 09:14:25;;;;;;;80.38;38.47;;;;;;;;;;6216110;28;20044;-68
2022/03/16 09:17:25;;;;;;;75.82;34.75;;;;;;;;;;6217520;28;20408;-71
2022/03/16 09:20:27;;;;;;;78.32;35.92;;;;;;;;;;6219826;28;20192;-66
2022/03/16 09:23:31;;;;;;;70.97;35.23;;;;;;;;;;6219733;28;20472;-68
2022/03/16 09:26:31;;;;;;;81.20;37.20;;;;;;;;;;6218005;28;20050;-70
2022/03/16 09:29:32;;;;;;;79.03;35.15;;;;;;;;;;6219425;28;20046;-69
2022/03/16 09:32:33;;;;;;;69.60;32.40;;;;;;;;;;6218286;28;20088;-72
2022/03/16 09:35:35;;;;;;;70.53;34.25;;;;;;;;;;6218259;28;20044;-72
2022/03/16 09:38:36;;;;;;;74.47;36.33;;;;;;;;;;6216985;28;20046;-70
2022/03/16 09:41:37;;;;;;;72.15;35.13;;;;;;;;;;6216613;28;20145;-73
2022/03/16 09:44:38;;;;;;;72.03;34.88;;;;;;;;;;6215129;28;20436;-68
2022/03/16 09:47:40;;;;;;;78.80;36.58;;;;;;;;;;6218927;28;20050;-68
2022/03/16 09:50:41;;;;;;;78.30;34.22;;;;;;;;;;6219626;28;20559;-68
2022/03/16 09:53:42;;;;;;;75.60;34.77;;;;;;;;;;6219202;28;20041;-68
2022/03/16 09:56:43;;;;;;;76.60;35.13;;;;;;;;;;6217729;28;20088;-62
2022/03/16 09:59:44;;;;;;;71.78;33.90;;;;;;;;;;6219415;28;20076;-69
2022/03/16 10:02:45;;;;;;;73.18;36.15;;;;;;;;;;6217824;28;20050;-72
2022/03/16 10:05:50;;;;;;;71.20;34.33;;;;;;;;;;6217187;28;20073;-72
2022/03/16 10:15:32;;;;;;;69.90;33.23;;;;;;;;;;6217018;28;20052;-71
2022/03/16 10:18:36;;;;;;;64.90;31.15;;;;;;;;;;6217098;28;20280;-73
2022/03/16 10:21:38;;;;;;;73.43;32.70;;;;;;;;;;6210042;28;20057;-73
2022/03/16 10:24:41;;;;;;;68.13;32.15;;;;;;;;;;6217128;28;20074;-70
2022/03/16 10:27:43;;;;;;;69.13;32.58;;;;;;;;;;6217408;28;20555;-65
2022/03/16 10:30:57;;;;;;;76.70;34.45;;;;;;;;;;6217381;28;20124;-68
2022/03/16 10:33:58;;;;;;;69.47;32.10;;;;;;;;;;6218396;28;20057;-71
2022/03/16 10:37:01;;;;;;;70.95;34.22;;;;;;;;;;6218074;28;20049;-70
2022/03/16 10:40:16;;;;;;;69.72;33.15;;;;;;;;;;6216431;28;20149;-72
2022/03/16 10:46:46;;;;;;;67.30;31.77;;;;;;;;;;6216395;28;20049;-71
2022/03/16 10:50:00;;;;;;;79.18;34.25;;;;;;;;;;6216423;28;20448;-76
2022/03/16 10:53:01;;;;;;;79.32;34.47;;;;;;;;;;6217101;28;20078;-85
2022/03/16 10:56:03;;;;;;;69.32;32.90;;;;;;;;;;6218238;28;20065;-71
2022/03/16 10:59:04;;;;;;;76.13;33.72;;;;;;;;;;6218291;28;20050;-71
2022/03/16 11:02:12;;;;;;;70.32;32.67;;;;;;;;;;6215436;28;20041;-71
2022/03/16 11:05:16;;;;;;;63.97;31.92;;;;;;;;;;6215518;28;20050;-72
2022/03/16 11:08:19;;;;;;;68.18;32.67;;;;;;;;;;6215374;28;20077;-70
2022/03/16 11:14:40;;;;;;;65.63;30.05;;;;;;;;;;6215549;28;20425;-70
2022/03/16 11:17:41;;;;;;;69.88;31.08;;;;;;;;;;6217918;28;20084;-72
2022/03/16 11:20:42;;;;;;;63.47;30.45;;;;;;;;;;6217523;28;20489;-77
2022/03/16 11:27:22;;;;;;;54.50;27.02;;;;;;;;;;6217397;28;20054;-73
2022/03/16 11:30:37;;;;;;;57.72;27.85;;;;;;;;;;6217471;28;20050;-73
2022/03/16 11:33:49;;;;;;;58.85;28.90;;;;;;;;;;6217195;28;20053;-71
2022/03/16 11:37:04;;;;;;;57.95;29.02;;;;;;;;;;6216075;28;20057;-71
2022/03/16 11:40:25;;;;;;;58.45;29.30;;;;;;;;;;6222781;28;20093;-67
2022/03/16 11:43:26;;;;;;;65.07;30.05;;;;;;;;;;6215537;28;20484;-66
2022/03/16 11:46:29;;;;;;;60.25;29.92;;;;;;;;;;6213397;28;20056;-74
2022/03/16 11:49:30;;;;;;;60.35;29.52;;;;;;;;;;6212901;28;20046;-78
2022/03/16 11:53:00;;;;;;;61.58;29.13;;;;;;;;;;6216832;28;20049;-74
2022/03/16 11:56:40;;;;;;;58.10;28.55;;;;;;;;;;6214937;28;20081;-78
2022/03/16 11:59:45;;;;;;;57.83;29.27;;;;;;;;;;6215137;28;20137;-77
2022/03/16 12:02:59;;;;;;;55.90;25.95;;;;;;;;;;6214739;28;20069;-76
2022/03/16 12:06:00;;;;;;;55.60;26.48;;;;;;;;;;6212644;28;20038;-76
2022/03/16 12:09:04;;;;;;;53.80;26.35;;;;;;;;;;6220727;28;20149;-71
2022/03/16 12:12:54;;;;;;;52.10;27.45;;;;;;;;;;6218663;28;20041;-74
2022/03/16 12:15:56;;;;;;;50.05;27.17;;;;;;;;;;6207841;28;20497;-77
2022/03/16 12:18:57;;;;;;;55.72;26.55;;;;;;;;;;6221693;28;20042;-73
2022/03/16 12:21:58;;;;;;;57.53;26.88;;;;;;;;;;6219702;28;20149;-68
2022/03/16 12:25:27;;;;;;;51.05;26.83;;;;;;;;;;6219538;28;20045;-76
2022/03/16 12:31:47;;;;;;;54.42;26.75;;;;;;;;;;6218878;28;20038;-73
2022/03/16 12:34:51;;;;;;;54.95;27.08;;;;;;;;;;6219078;28;20181;-76
2022/03/16 12:37:52;;;;;;;51.28;24.33;;;;;;;;;;6220574;28;20054;-77
2022/03/16 12:44:15;;;;;;;43.42;22.50;;;;;;;;;;6219201;28;20147;-69
2022/03/16 12:47:30;;;;;;;49.58;25.00;;;;;;;;;;6220417;28;20085;-71
2022/03/16 12:50:31;;;;;;;44.03;21.60;;;;;;;;;;6218441;28;20046;-74
2022/03/16 12:53:44;;;;;;;42.13;22.08;;;;;;;;;;6215910;28;20149;-76
2022/03/16 12:56:50;;;;;;;35.83;19.10;;;;;;;;;;6218085;28;20108;-72
2022/03/16 12:59:55;;;;;;;43.88;21.08;;;;;;;;;;6219415;28;20048;-77
2022/03/16 13:03:12;;;;;;;41.78;20.30;;;;;;;;;;6214917;28;20050;-66
2022/03/16 13:06:18;;;;;;;41.15;20.67;;;;;;;;;;6219931;28;20870;-67
2022/03/16 13:09:19;;;;;;;39.60;21.30;;;;;;;;;;6219023;28;20095;-64
2022/03/16 13:12:24;;;;;;;40.22;20.70;;;;;;;;;;6219999;28;20103;-65
2022/03/16 13:15:26;;;;;;;41.90;21.95;;;;;;;;;;6218500;28;20041;-63
2022/03/16 13:18:33;;;;;;;40.55;20.67;;;;;;;;;;6217514;28;20564;-70
2022/03/16 13:21:36;;;;;;;40.83;20.13;;;;;;;;;;6218813;28;20132;-66
2022/03/16 13:24:44;;;;;;;41.30;20.77;;;;;;;;;;6215405;28;20128;-63
2022/03/16 13:27:51;;;;;;;38.80;20.00;;;;;;;;;;6217656;28;20069;-64
2022/03/16 13:30:51;;;;;;;52.15;22.83;;;;;;;;;;6216247;28;20046;-66
2022/03/16 13:33:52;;;;;;;45.25;22.52;;;;;;;;;;6218343;28;20056;-67
2022/03/16 13:36:55;;;;;;;44.78;22.83;;;;;;;;;;6214467;28;20042;-67
2022/03/16 13:40:07;;;;;;;43.30;23.65;;;;;;;;;;6217556;28;20081;-62
2022/03/16 13:43:12;;;;;;;;;;;;;;;;;;6219211;28;20069;-64
2022/03/16 13:46:15;;;;;;;44.67;23.42;;;;;;;;;;6217257;28;19936;-65
2022/03/16 13:49:15;;;;;;;45.05;23.73;;;;;;;;;;6218101;28;20117;-66
2022/03/16 13:52:19;;;;;;;48.78;23.15;;;;;;;;;;6222841;28;20057;-65
2022/03/16 13:55:21;;;;;;;51.30;25.20;;;;;;;;;;6216113;28;20504;-67
2022/03/16 13:58:25;;;;;;;;;;;;;;;;;;6218938;28;20104;-64
2022/03/16 14:01:27;;;;;;;;;;;;;;;;;;6212493;28;19960;-67
2022/03/16 14:04:29;;;;;;;;;;;;;;;;;;6216872;28;20737;-61
2022/03/16 14:07:33;;;;;;;;;;;;;;;;;;6213998;28;19951;-62
2022/03/16 14:10:33;;;;;;;;;;;;;;;;;;6216742;28;20340;-62
2022/03/16 14:13:37;;;;;;;;;;;;;;;;;;6217658;28;19925;-63
2022/03/16 14:16:43;;;;;;;;;;;;;;;;;;6215087;28;20451;-64
2022/03/16 14:19:44;;;;;;;;;;;;;;;;;;6216037;28;19925;-64
2022/03/16 14:22:45;;;;;;;;;;;;;;;;;;6217790;28;19929;-63
2022/03/16 14:25:50;;;;;;;;;;;;;;;;;;6215222;28;21666;-62
2022/03/16 14:28:51;;;;;;;;;;;;;;;;;;6210907;28;19952;-68
2022/03/16 14:31:51;;;;;;;;;;;;;;;;;;6215016;28;20335;-68
2022/03/16 14:34:52;;;;;;;;;;;;;;;;;;6218048;28;19936;-69
2022/03/16 14:37:53;;;;;;;;;;;;;;;;;;6215796;28;19929;-71
2022/03/16 14:40:54;;;;;;;;;;;;;;;;;;6216510;28;19921;-69
2022/03/16 14:43:55;;;;;;;;;;;;;;;;;;6213394;28;19967;-69
2022/03/16 14:47:01;;;;;;;;;;;;;;;;;;6205679;28;19929;-67
2022/03/16 14:50:02;;;;;;;;;;;;;;;;;;6212947;28;20105;-67
2022/03/16 14:53:06;;;;;;;;;;;;;;;;;;6212489;28;19921;-69
2022/03/16 14:56:07;;;;;;;;;;;;;;;;;;6212296;28;19967;-68
2022/03/16 14:59:08;;;;;;;;;;;;;;;;;;6212850;28;20377;-64
2022/03/16 15:02:08;;;;;;;;;;;;;;;;;;6215011;28;19964;-69
2022/03/16 15:05:09;;;;;;;;;;;;;;;;;;6214923;28;20344;-67
2022/03/16 15:08:10;;;;;;;;;;;;;;;;;;6213305;28;19991;-66
2022/03/16 15:11:11;;;;;;;;;;;;;;;;;;6214897;28;19933;-69
2022/03/16 15:14:11;;;;;;;;;;;;;;;;;;6214775;28;19987;-68
2022/03/16 15:17:12;;;;;;;;;;;;;;;;;;6213729;28;20737;-69
2022/03/16 15:20:13;;;;;;;;;;;;;;;;;;6215809;28;20044;-68
2022/03/16 15:23:14;;;;;;;;;;;;;;;;;;6216280;28;20388;-67
2022/03/16 15:26:14;;;;;;;;;;;;;;;;;;6212506;28;19925;-68
2022/03/16 15:29:15;;;;;;;;;;;;;;;;;;6213702;28;19929;-69
2022/03/16 15:32:16;;;;;;;;;;;;;;;;;;6215043;28;20008;-68
2022/03/16 15:35:18;;;;;;;;;;;;;;;;;;6214917;28;20323;-68
2022/03/16 15:38:19;;;;;;;;;;;;;;;;;;6215467;28;19960;-67
2022/03/16 15:44:39;;;;;;;;;;;;;;;;;;6212682;28;19988;-67
2022/03/16 15:47:40;;;;;;;;;;;;;;;;;;6214860;28;20335;-69
2022/03/16 15:50:40;;;;;;;;;;;;;;;;;;6217305;28;20544;-63
2022/03/16 15:53:41;;;;;;;;;;;;;;;;;;6219265;28;19922;-66
2022/03/16 15:56:43;;;;;;;;;;;;;;;;;;6216907;28;20021;-72
2022/03/16 15:59:43;;;;;;;;;;;;;;;;;;6216166;28;19933;-65
2022/03/16 16:02:44;;;;;;;;;;;;;;;;;;6215591;28;20394;-71
2022/03/16 16:05:47;;;;;;;;;;;;;;;;;;6216543;28;19921;-67
2022/03/16 16:08:47;;;;;;;;;;;;;;;;;;6217759;28;19931;-66
2022/03/16 16:11:49;;;;;;;;;;;;;;;;;;6218196;28;19926;-66
2022/03/16 16:14:49;;;;;;;;;;;;;;;;;;6218181;28;19956;-70
2022/03/16 16:17:50;;;;;;;;;;;;;;;;;;6215984;28;20432;-66
2022/03/16 16:20:50;;;;;;;;;;;;;;;;;;6218772;28;19925;-70
2022/03/16 16:23:51;;;;;;;;;;;;;;;;;;6218968;28;19932;-69
2022/03/16 16:26:53;;;;;;;;;;;;;;;;;;6216876;28;20281;-66
2022/03/16 16:29:54;;;;;;;;;;;;;;;;;;6217993;28;19936;-67
2022/03/16 16:32:54;;;;;;;;;;;;;;;;;;6218296;28;19925;-66
2022/03/16 16:35:57;;;;;;;;;;;;;;;;;;6217008;28;20328;-66
2022/03/16 16:38:57;;;;;;;;;;;;;;;;;;6214369;28;20012;-67
2022/03/16 16:45:20;;;;;;;;;;;;;;;;;;6208762;28;19979;-66
2022/03/16 16:48:23;;;;;;;;;;;;;;;;;;6208276;28;19972;-68
2022/03/16 16:51:23;;;;;;;;;;;;;;;;;;6213161;28;19967;-63
2022/03/16 16:54:24;;;;;;;;;;;;;;;;;;6209201;28;20032;-68
2022/03/16 16:57:27;;;;;;;;;;;;;;;;;;6211718;28;19922;-64
2022/03/16 17:00:28;;;;;;;;;;;;;;;;;;6208090;28;19964;-65
2022/03/16 17:03:30;;;;;;;;;;;;;;;;;;6211626;28;20284;-69
2022/03/16 17:06:33;;;;;;;;;;;;;;;;;;6209038;28;19964;-65
2022/03/16 17:09:34;;;;;;;;;;;;;;;;;;6208056;28;19990;-69
2022/03/16 17:12:35;;;;;;;;;;;;;;;;;;6210161;28;19925;-68
2022/03/16 17:15:42;;;;;;;;;;;;;;;;;;6209673;28;19933;-65
2022/03/16 17:18:43;;;;;;;;;;;;;;;;;;6210011;28;20380;-64
2022/03/16 17:21:44;;;;;;;;;;;;;;;;;;6210615;28;19971;-69
2022/03/16 17:24:45;;;;;;;;;;;;;;;;;;6208606;28;20016;-68
2022/03/16 17:27:46;;;;;;;;;;;;;;;;;;6209152;28;19921;-66
2022/03/16 17:30:48;;;;;;;;;;;;;;;;;;6208543;28;19925;-67
2022/03/16 17:33:53;;;;;;;;;;;;;;;;;;6212623;28;20376;-64
2022/03/16 17:36:54;;;;;;;;;;;;;;;;;;6213104;28;19925;-66
2022/03/16 17:39:54;;;;;;;;;;;;;;;;;;6214234;28;20289;-67
2022/03/16 17:46:16;;;;;;;;;;;;;;;;;;6212758;28;19964;-65
2022/03/16 17:49:17;;;;;;;;;;;;;;;;;;6214501;28;19987;-71
2022/03/16 17:52:21;;;;;;;;;;;;;;;;;;6213952;28;20044;-66
2022/03/16 17:58:46;;;;;;;;;;;;;;;;;;6208416;28;19925;-70
2022/03/16 18:01:49;;;;;;;;;;;;;;;;;;6213494;28;19932;-67
2022/03/16 18:04:50;;;;;;;;;;;;;;;;;;6211494;28;19964;-66
2022/03/16 18:07:51;;;;;;;;;;;;;;;;;;6213852;28;19929;-66
2022/03/16 18:14:14;;;;;;;;;;;;;;;;;;6210453;28;20450;-67
2022/03/16 18:17:16;;;;;;;;;;;;;;;;;;6214235;28;20490;-66
2022/03/16 18:20:17;;;;;;;;;;;;;;;;;;6211979;28;19921;-66
2022/03/16 18:23:19;;;;;;;;;;;;;;;;;;6209022;28;20382;-67
2022/03/16 18:26:20;;;;;;;;;;;;;;;;;;6211511;28;19928;-70
2022/03/16 18:29:21;;;;;;;;;;;;;;;;;;6210035;28;20011;-66
2022/03/16 18:32:24;;;;;;;;;;;;;;;;;;6223798;28;19951;-66
2022/03/16 18:35:25;;;;;;;;;;;;;;;;;;6204005;28;19925;-67
2022/03/16 18:38:26;;;;;;;;;;;;;;;;;;6239110;28;19935;-66
2022/03/16 18:41:28;;;;;;;;;;;;;;;;;;6208580;28;19921;-71
2022/03/16 18:44:31;;;;;;;;;;;;;;;;;;6202456;28;20564;-64
2022/03/16 18:47:31;;;;;;;;;;;;;;;;;;6208736;28;20335;-68
2022/03/16 18:50:33;;;;;;;;;;;;;;;;;;6208585;28;19933;-67
2022/03/16 18:53:33;;;;;;;;;;;;;;;;;;6207285;28;19925;-67
2022/03/16 18:56:34;;;;;;;;;;;;;;;;;;6207129;28;19935;-67
2022/03/16 18:59:35;;;;;;;;;;;;;;;;;;6209429;28;19929;-68
2022/03/16 19:02:37;;;;;;;;;;;;;;;;;;6198782;28;19930;-68
2022/03/16 19:05:41;;;;;;;;;;;;;;;;;;6205500;28;19937;-68